createdAt,value
2023-03-16T00:00:04.363Z,-3.40
2023-03-16T00:02:31.373Z,-3.40
2023-03-16T00:04:58.372Z,-3.40
2023-03-16T00:07:25.546Z,-3.40
2023-03-16T00:09:52.512Z,-3.30
2023-03-16T00:12:20.319Z,-3.30
2023-03-16T00:14:49.254Z,-3.30
2023-03-16T00:17:20.459Z,-3.40
2023-03-16T00:19:57.555Z,-3.50
2023-03-16T00:22:27.184Z,-3.60
2023-03-16T00:24:54.730Z,-3.60
2023-03-16T00:27:23.986Z,-3.70
2023-03-16T00:29:56.251Z,-3.70
2023-03-16T00:32:29.818Z,-3.70
2023-03-16T00:34:56.922Z,-3.70
2023-03-16T00:37:26.119Z,-3.70
2023-03-16T00:39:56.434Z,-3.80
2023-03-16T00:42:27.712Z,-3.80
2023-03-16T00:44:57.748Z,-3.70
2023-03-16T00:47:28.557Z,-3.70
2023-03-16T00:49:56.474Z,-3.80
2023-03-16T00:52:23.773Z,-3.80
2023-03-16T00:54:53.861Z,-3.90
2023-03-16T00:57:22.928Z,-3.90
2023-03-16T00:59:49.923Z,-3.80
2023-03-16T01:02:20.036Z,-3.60
2023-03-16T01:04:47.054Z,-3.60
2023-03-16T01:07:15.051Z,-3.70
2023-03-16T01:09:42.762Z,-3.70
2023-03-16T01:12:12.886Z,-3.70
2023-03-16T01:14:40.781Z,-3.80
2023-03-16T01:17:09.411Z,-3.80
2023-03-16T01:19:37.647Z,-3.80
2023-03-16T01:22:06.501Z,-3.80
2023-03-16T01:24:34.989Z,-3.80
2023-03-16T01:27:03.198Z,-3.80
2023-03-16T01:29:30.617Z,-3.80
2023-03-16T01:31:57.710Z,-3.80
2023-03-16T01:34:24.847Z,-3.80
2023-03-16T01:36:52.227Z,-3.80
2023-03-16T01:39:19.350Z,-3.90
2023-03-16T01:41:47.117Z,-4.00
2023-03-16T01:44:22.664Z,-4.00
2023-03-16T01:46:50.051Z,-4.00
2023-03-16T01:49:25.440Z,-4.00
2023-03-16T01:51:56.434Z,-4.00
2023-03-16T01:54:35.902Z,-4.10
2023-03-16T01:57:10.932Z,-4.10
2023-03-16T02:00:08.109Z,-4.20
2023-03-16T02:02:35.811Z,-3.70
2023-03-16T02:05:14.183Z,-3.30
2023-03-16T02:07:46.657Z,-3.20
2023-03-16T02:10:17.068Z,-3.20
2023-03-16T02:12:45.008Z,-3.20
2023-03-16T02:15:14.083Z,-3.30
2023-03-16T02:17:43.959Z,-3.50
2023-03-16T02:20:36.408Z,-3.50
2023-03-16T02:23:06.100Z,-3.60
2023-03-16T02:25:46.103Z,-3.70
2023-03-16T02:28:31.803Z,-3.70
2023-03-16T02:30:58.891Z,-3.70
2023-03-16T02:33:26.618Z,-3.80
2023-03-16T02:35:53.649Z,-3.60
2023-03-16T02:38:20.929Z,-3.50
2023-03-16T02:40:58.630Z,-3.60
2023-03-16T02:43:33.346Z,-3.60
2023-03-16T02:46:06.273Z,-3.70
2023-03-16T02:48:39.612Z,-3.70
2023-03-16T02:51:06.986Z,-3.80
2023-03-16T02:53:33.986Z,-3.90
2023-03-16T02:56:03.191Z,-3.80
2023-03-16T02:58:32.107Z,-3.60
2023-03-16T03:00:59.323Z,-3.40
2023-03-16T03:03:26.389Z,-3.30
2023-03-16T03:05:53.383Z,-2.90
2023-03-16T03:08:23.673Z,-2.60
2023-03-16T03:10:50.756Z,-2.50
2023-03-16T03:13:18.042Z,-2.20
2023-03-16T03:15:45.556Z,-2.20
2023-03-16T03:18:12.569Z,-2.10
2023-03-16T03:20:39.612Z,-2.10
2023-03-16T03:23:06.771Z,-2.00
2023-03-16T03:25:36.798Z,-1.80
2023-03-16T03:28:05.853Z,-1.70
2023-03-16T03:30:33.143Z,-1.60
2023-03-16T03:33:00.242Z,-1.50
2023-03-16T03:35:27.858Z,-1.40
2023-03-16T03:37:54.893Z,-1.30
2023-03-16T03:40:22.170Z,-1.30
2023-03-16T03:42:49.247Z,-1.30
2023-03-16T03:45:16.918Z,-1.20
2023-03-16T03:47:44.599Z,-1.20
2023-03-16T03:50:14.079Z,-1.20
2023-03-16T03:52:41.511Z,-1.10
2023-03-16T03:55:09.071Z,-1.00
2023-03-16T03:57:36.539Z,-0.90
2023-03-16T04:00:08.155Z,-0.90
2023-03-16T04:02:35.208Z,-0.80
2023-03-16T04:05:02.269Z,-0.90
2023-03-16T04:07:29.386Z,-1.00
2023-03-16T04:09:56.407Z,-1.10
2023-03-16T04:12:23.490Z,-1.20
2023-03-16T04:14:51.752Z,-1.30
2023-03-16T04:17:18.763Z,-1.40
2023-03-16T04:19:45.778Z,-1.40
2023-03-16T04:22:13.517Z,-1.50
2023-03-16T04:24:40.768Z,-1.50
2023-03-16T04:27:07.780Z,-1.50
2023-03-16T04:29:34.869Z,-1.60
2023-03-16T04:32:01.900Z,-1.60
2023-03-16T04:34:28.866Z,-1.60
2023-03-16T04:36:55.895Z,-1.60
2023-03-16T04:39:25.935Z,-1.50
2023-03-16T04:41:52.882Z,-1.40
2023-03-16T04:44:19.938Z,-1.40
2023-03-16T04:46:46.992Z,-1.40
2023-03-16T04:49:13.999Z,-1.30
2023-03-16T04:51:42.693Z,-1.30
2023-03-16T04:54:09.858Z,-1.40
2023-03-16T04:56:36.949Z,-1.30
2023-03-16T04:59:03.963Z,-1.40
2023-03-16T05:01:33.052Z,-1.40
2023-03-16T05:04:00.210Z,-1.30
2023-03-16T05:06:27.203Z,-1.30
2023-03-16T05:08:54.227Z,-1.30
2023-03-16T05:11:21.185Z,-1.30
2023-03-16T05:13:48.310Z,-1.30
2023-03-16T05:16:15.387Z,-1.30
2023-03-16T05:18:42.454Z,-1.40
2023-03-16T05:21:09.527Z,-1.40
2023-03-16T05:23:36.480Z,-1.40
2023-03-16T05:26:03.511Z,-1.40
2023-03-16T05:28:31.232Z,-1.50
2023-03-16T05:30:58.229Z,-1.50
2023-03-16T05:33:25.783Z,-1.50
2023-03-16T05:35:52.958Z,-1.50
2023-03-16T05:38:20.137Z,-1.50
2023-03-16T05:40:53.041Z,-1.50
2023-03-16T05:43:21.756Z,-1.50
2023-03-16T05:45:48.873Z,-1.50
2023-03-16T05:48:15.852Z,-1.50
2023-03-16T05:50:42.944Z,-1.50
2023-03-16T05:53:09.944Z,-1.50
2023-03-16T05:55:36.950Z,-1.50
2023-03-16T05:58:05.745Z,-1.50
2023-03-16T06:00:33.204Z,-1.50
2023-03-16T06:03:00.347Z,-1.50
2023-03-16T06:05:28.777Z,-1.50
2023-03-16T06:07:55.859Z,-1.50
2023-03-16T06:10:23.054Z,-1.50
2023-03-16T06:12:50.126Z,-1.50
2023-03-16T06:15:17.135Z,-1.40
2023-03-16T06:17:44.238Z,-1.40
2023-03-16T06:20:13.546Z,-1.40
2023-03-16T06:22:44.603Z,-1.30
2023-03-16T06:25:13.117Z,-1.40
2023-03-16T06:27:40.352Z,-1.40
2023-03-16T06:30:10.025Z,-1.40
2023-03-16T06:32:38.123Z,-1.40
2023-03-16T06:35:06.030Z,-1.40
2023-03-16T06:37:33.655Z,-1.40
2023-03-16T06:40:00.667Z,-1.40
2023-03-16T06:42:27.776Z,-1.30
2023-03-16T06:44:54.865Z,-1.10
2023-03-16T06:47:21.872Z,-1.00
2023-03-16T06:49:49.040Z,-0.80
2023-03-16T06:52:15.980Z,-0.50
2023-03-16T06:54:43.000Z,-0.30
2023-03-16T06:57:10.082Z,0.10
2023-03-16T06:59:37.041Z,0.50
2023-03-16T07:02:04.791Z,0.70
2023-03-16T07:04:31.845Z,1.10
2023-03-16T07:06:58.934Z,1.70
2023-03-16T07:09:25.986Z,1.90
2023-03-16T07:11:53.256Z,2.20
2023-03-16T07:14:22.929Z,2.60
2023-03-16T07:16:50.038Z,2.80
2023-03-16T07:19:17.089Z,3.30
2023-03-16T07:21:44.094Z,3.70
2023-03-16T07:24:12.904Z,3.80
2023-03-16T07:26:39.904Z,4.10
2023-03-16T07:29:06.875Z,4.10
2023-03-16T07:31:34.820Z,4.20
2023-03-16T07:34:03.659Z,4.30
2023-03-16T07:36:30.779Z,4.30
2023-03-16T07:38:57.965Z,4.80
2023-03-16T07:41:25.628Z,5.10
2023-03-16T07:43:53.459Z,5.40
2023-03-16T07:46:20.526Z,5.70
2023-03-16T07:48:47.603Z,5.80
2023-03-16T07:51:14.719Z,6.00
2023-03-16T07:53:41.809Z,6.10
2023-03-16T07:56:09.434Z,5.80
2023-03-16T07:58:36.868Z,5.70
2023-03-16T08:01:04.105Z,5.90
2023-03-16T08:03:32.173Z,5.60
2023-03-16T08:05:59.658Z,5.60
2023-03-16T08:08:26.642Z,5.60
2023-03-16T08:10:56.243Z,5.70
2023-03-16T08:13:23.802Z,5.80
2023-03-16T08:16:02.458Z,6.00
2023-03-16T08:18:30.246Z,6.30
2023-03-16T08:20:58.666Z,6.30
2023-03-16T08:23:26.285Z,6.00
2023-03-16T08:25:55.178Z,6.00
2023-03-16T08:28:22.397Z,6.30
2023-03-16T08:30:51.420Z,6.00
2023-03-16T08:33:23.034Z,5.30
2023-03-16T08:35:50.904Z,5.50
2023-03-16T08:38:19.358Z,5.70
2023-03-16T08:40:48.640Z,6.00
2023-03-16T08:43:17.422Z,5.70
2023-03-16T08:45:48.604Z,5.40
2023-03-16T08:48:15.729Z,5.20
2023-03-16T08:50:44.249Z,5.20
2023-03-16T08:53:13.737Z,5.30
2023-03-16T08:55:45.241Z,5.90
2023-03-16T08:58:12.510Z,6.30
2023-03-16T09:00:40.160Z,6.40
2023-03-16T09:03:07.802Z,6.70
2023-03-16T09:05:34.926Z,6.90
2023-03-16T09:08:04.017Z,6.90
2023-03-16T09:10:32.501Z,6.90
2023-03-16T09:12:59.550Z,7.00
2023-03-16T09:15:26.987Z,7.10
2023-03-16T09:17:54.571Z,7.00
2023-03-16T09:20:35.150Z,6.40
2023-03-16T09:23:02.294Z,6.30
2023-03-16T09:25:29.505Z,6.30
2023-03-16T09:27:56.679Z,6.70
2023-03-16T09:30:23.786Z,7.10
2023-03-16T09:32:50.932Z,7.00
2023-03-16T09:35:18.215Z,7.10
2023-03-16T09:38:01.053Z,7.50
2023-03-16T09:40:32.414Z,7.60
2023-03-16T09:43:05.939Z,8.00
2023-03-16T09:45:45.747Z,8.00
2023-03-16T09:48:14.725Z,7.50
2023-03-16T09:50:48.776Z,7.20
2023-03-16T09:53:25.649Z,7.40
2023-03-16T09:56:05.543Z,7.40
2023-03-16T09:58:33.168Z,7.30
2023-03-16T10:01:34.736Z,7.20
2023-03-16T10:04:45.165Z,7.00
2023-03-16T10:07:45.167Z,7.40
2023-03-16T10:10:15.212Z,7.10
2023-03-16T10:12:50.471Z,7.40
2023-03-16T10:15:23.462Z,7.40
2023-03-16T10:17:59.513Z,7.30
2023-03-16T10:20:33.236Z,7.30
2023-03-16T10:23:09.345Z,8.20
2023-03-16T10:25:46.394Z,8.50
2023-03-16T10:28:26.337Z,8.70
2023-03-16T10:30:56.229Z,8.40
2023-03-16T10:33:27.069Z,8.60
2023-03-16T10:36:05.829Z,8.60
2023-03-16T10:38:46.892Z,8.30
2023-03-16T10:41:27.183Z,8.40
2023-03-16T10:44:22.362Z,8.20
2023-03-16T10:46:53.564Z,8.10
2023-03-16T10:49:36.217Z,8.10
2023-03-16T10:52:14.779Z,8.30
2023-03-16T10:54:47.922Z,8.60
2023-03-16T10:57:25.687Z,8.30
2023-03-16T10:59:55.329Z,8.20
2023-03-16T11:02:27.756Z,7.60
2023-03-16T11:04:56.187Z,7.40
2023-03-16T11:07:27.749Z,6.90
2023-03-16T11:09:59.808Z,6.90
2023-03-16T11:12:30.748Z,7.00
2023-03-16T11:15:26.161Z,7.60
2023-03-16T11:17:54.844Z,7.70
2023-03-16T11:20:28.697Z,7.70
2023-03-16T11:22:56.392Z,7.20
2023-03-16T11:25:37.479Z,7.00
2023-03-16T11:28:15.654Z,7.20
2023-03-16T11:30:48.757Z,7.30
2023-03-16T11:33:16.552Z,7.10
2023-03-16T11:36:06.029Z,7.40
2023-03-16T11:39:04.855Z,7.50
2023-03-16T11:41:45.925Z,7.60
2023-03-16T11:44:40.531Z,7.70
2023-03-16T11:47:35.340Z,7.60
2023-03-16T11:50:25.990Z,7.60
2023-03-16T11:53:13.324Z,7.50
2023-03-16T11:56:10.942Z,7.30
2023-03-16T11:58:46.367Z,7.10
2023-03-16T12:01:22.562Z,7.40
2023-03-16T12:04:03.970Z,7.30
2023-03-16T12:06:33.966Z,7.60
2023-03-16T12:09:06.565Z,7.70
2023-03-16T12:12:05.358Z,8.00
2023-03-16T12:14:41.313Z,8.20
2023-03-16T12:17:19.687Z,8.20
2023-03-16T12:19:52.669Z,8.40
2023-03-16T12:22:32.301Z,8.40
2023-03-16T12:24:59.307Z,8.10
2023-03-16T12:27:36.688Z,7.70
2023-03-16T12:30:06.534Z,7.80
2023-03-16T12:33:02.422Z,7.90
2023-03-16T12:36:06.221Z,8.00
2023-03-16T12:38:43.423Z,8.00
2023-03-16T12:41:42.690Z,8.20
2023-03-16T12:44:21.143Z,8.30
2023-03-16T12:47:08.488Z,8.40
2023-03-16T12:49:37.070Z,8.50
2023-03-16T12:52:09.578Z,8.50
2023-03-16T12:54:38.148Z,8.70
2023-03-16T12:57:07.942Z,9.00
2023-03-16T12:59:47.326Z,9.70
2023-03-16T13:02:20.885Z,10.00
2023-03-16T13:04:55.251Z,9.70
2023-03-16T13:07:31.250Z,9.50
2023-03-16T13:10:14.806Z,9.80
2023-03-16T13:12:42.188Z,9.80
2023-03-16T13:15:25.998Z,9.90
2023-03-16T13:18:17.422Z,10.00
2023-03-16T13:20:57.541Z,10.20
2023-03-16T13:23:47.217Z,10.20
2023-03-16T13:26:23.502Z,10.00
2023-03-16T13:28:54.457Z,9.80
2023-03-16T13:31:27.684Z,9.90
2023-03-16T13:34:00.594Z,9.60
2023-03-16T13:36:29.665Z,9.90
2023-03-16T13:39:18.985Z,10.30
2023-03-16T13:42:18.858Z,10.20
2023-03-16T13:44:46.118Z,10.00
2023-03-16T13:47:19.484Z,9.30
2023-03-16T13:49:55.142Z,9.30
2023-03-16T13:52:30.831Z,9.20
2023-03-16T13:54:59.505Z,9.40
2023-03-16T13:57:29.705Z,9.70
2023-03-16T14:00:32.467Z,9.30
2023-03-16T14:03:04.196Z,9.80
2023-03-16T14:05:34.730Z,9.80
2023-03-16T14:08:02.335Z,10.00
2023-03-16T14:10:34.418Z,10.50
2023-03-16T14:13:24.213Z,10.40
2023-03-16T14:15:53.620Z,10.50
2023-03-16T14:18:24.967Z,10.30
2023-03-16T14:20:56.175Z,10.10
2023-03-16T14:23:33.685Z,10.30
2023-03-16T14:26:03.317Z,10.10
2023-03-16T14:28:34.535Z,10.20
2023-03-16T14:31:09.813Z,10.40
2023-03-16T14:33:41.452Z,10.70
2023-03-16T14:36:20.114Z,10.70
2023-03-16T14:38:48.774Z,10.60
2023-03-16T14:41:27.540Z,10.60
2023-03-16T14:43:59.206Z,10.80
2023-03-16T14:46:40.616Z,10.60
2023-03-16T14:49:33.280Z,10.40
2023-03-16T14:52:16.682Z,10.30
2023-03-16T14:54:43.633Z,10.50
2023-03-16T14:57:17.056Z,10.90
2023-03-16T14:59:44.062Z,11.40
2023-03-16T15:02:18.656Z,10.80
2023-03-16T15:04:47.470Z,10.50
2023-03-16T15:07:28.688Z,9.90
2023-03-16T15:10:00.862Z,10.00
2023-03-16T15:12:27.836Z,10.10
2023-03-16T15:15:13.521Z,9.50
2023-03-16T15:17:40.459Z,9.40
2023-03-16T15:20:08.157Z,9.20
2023-03-16T15:22:38.304Z,9.20
2023-03-16T15:25:36.922Z,9.40
2023-03-16T15:28:17.619Z,9.50
2023-03-16T15:30:47.042Z,9.50
2023-03-16T15:33:14.665Z,9.30
2023-03-16T15:35:42.392Z,9.00
2023-03-16T15:38:19.289Z,8.90
2023-03-16T15:40:48.115Z,8.80
2023-03-16T15:43:20.685Z,8.70
2023-03-16T15:45:47.989Z,8.60
2023-03-16T15:48:15.744Z,8.60
2023-03-16T15:50:47.770Z,8.60
2023-03-16T15:53:30.936Z,8.60
2023-03-16T15:56:12.011Z,8.60
2023-03-16T15:58:41.937Z,8.50
2023-03-16T16:01:22.938Z,8.40
2023-03-16T16:03:53.519Z,8.30
2023-03-16T16:06:20.982Z,8.00
2023-03-16T16:08:48.537Z,7.90
2023-03-16T16:11:18.162Z,7.70
2023-03-16T16:13:45.900Z,7.60
2023-03-16T16:16:15.596Z,7.40
2023-03-16T16:18:42.936Z,7.30
2023-03-16T16:21:19.318Z,7.20
2023-03-16T16:23:46.659Z,7.00
2023-03-16T16:26:41.515Z,6.80
2023-03-16T16:29:16.730Z,6.70
2023-03-16T16:31:44.006Z,6.50
2023-03-16T16:34:17.273Z,6.40
2023-03-16T16:36:45.166Z,6.30
2023-03-16T16:39:12.767Z,6.30
2023-03-16T16:41:40.753Z,6.30
2023-03-16T16:44:23.656Z,6.30
2023-03-16T16:46:52.237Z,6.20
2023-03-16T16:49:28.586Z,6.20
2023-03-16T16:51:56.211Z,6.10
2023-03-16T16:54:29.304Z,6.00
2023-03-16T16:56:57.603Z,6.00
2023-03-16T16:59:29.113Z,5.90
2023-03-16T17:01:59.715Z,5.90
2023-03-16T17:04:29.011Z,5.80
2023-03-16T17:07:02.148Z,5.70
2023-03-16T17:09:30.364Z,5.70
2023-03-16T17:12:02.151Z,5.60
2023-03-16T17:14:31.304Z,5.60
2023-03-16T17:17:04.927Z,5.50
2023-03-16T17:19:32.939Z,5.40
2023-03-16T17:22:00.039Z,5.30
2023-03-16T17:24:27.642Z,5.20
2023-03-16T17:26:58.919Z,5.10
2023-03-16T17:29:33.880Z,5.00
2023-03-16T17:32:03.482Z,4.90
2023-03-16T17:34:34.377Z,4.80
2023-03-16T17:37:02.061Z,4.80
2023-03-16T17:39:31.743Z,4.80
2023-03-16T17:42:07.143Z,4.70
2023-03-16T17:44:38.151Z,4.70
2023-03-16T17:47:18.328Z,4.70
2023-03-16T17:49:48.936Z,4.70
2023-03-16T17:52:18.878Z,4.60
2023-03-16T17:54:47.514Z,4.50
2023-03-16T17:57:18.685Z,4.50
2023-03-16T17:59:47.005Z,4.50
2023-03-16T18:02:42.088Z,4.40
2023-03-16T18:05:28.802Z,4.40
2023-03-16T18:07:59.459Z,4.30
2023-03-16T18:10:29.463Z,4.30
2023-03-16T18:13:02.169Z,4.20
2023-03-16T18:15:35.028Z,4.20
2023-03-16T18:18:02.791Z,4.20
2023-03-16T18:20:34.509Z,4.20
2023-03-16T18:23:10.500Z,4.10
2023-03-16T18:25:42.207Z,4.20
2023-03-16T18:28:10.834Z,4.20
2023-03-16T18:30:39.595Z,4.20
2023-03-16T18:33:12.486Z,4.10
2023-03-16T18:35:39.572Z,4.10
2023-03-16T18:38:32.787Z,4.10
2023-03-16T18:41:02.189Z,4.20
2023-03-16T18:43:29.968Z,4.10
2023-03-16T18:45:57.283Z,4.10
2023-03-16T18:48:35.118Z,4.10
2023-03-16T18:51:02.304Z,4.10
2023-03-16T18:53:29.730Z,4.00
2023-03-16T18:55:57.605Z,4.00
2023-03-16T18:58:25.851Z,3.90
2023-03-16T19:01:02.828Z,3.80
2023-03-16T19:03:33.513Z,3.70
2023-03-16T19:06:02.035Z,3.80
2023-03-16T19:08:29.823Z,3.80
2023-03-16T19:11:01.303Z,3.80
2023-03-16T19:13:29.561Z,3.80
2023-03-16T19:15:58.041Z,3.80
2023-03-16T19:18:26.362Z,3.80
2023-03-16T19:20:54.417Z,3.80
2023-03-16T19:24:06.353Z,3.70
2023-03-16T19:26:35.042Z,3.70
2023-03-16T19:29:03.404Z,3.70
2023-03-16T19:31:31.879Z,3.70
2023-03-16T19:33:59.256Z,3.70
2023-03-16T19:36:30.408Z,3.70
2023-03-16T19:38:58.506Z,3.60
2023-03-16T19:41:33.452Z,3.60
2023-03-16T19:44:20.320Z,3.60
2023-03-16T19:46:47.922Z,3.50
2023-03-16T19:49:26.179Z,3.50
2023-03-16T19:51:55.131Z,3.40
2023-03-16T19:54:23.318Z,3.40
2023-03-16T19:56:51.760Z,3.30
2023-03-16T19:59:20.257Z,3.30
2023-03-16T20:01:47.588Z,3.30
2023-03-16T20:04:21.127Z,3.30
2023-03-16T20:06:49.950Z,3.30
2023-03-16T20:09:18.287Z,3.30
2023-03-16T20:11:46.964Z,3.30
2023-03-16T20:14:27.330Z,3.30
2023-03-16T20:16:54.527Z,3.20
2023-03-16T20:19:22.338Z,3.20
2023-03-16T20:21:49.791Z,3.20
2023-03-16T20:24:19.305Z,3.20
2023-03-16T20:26:48.571Z,3.20
2023-03-16T20:29:28.805Z,3.10
2023-03-16T20:31:56.294Z,3.10
2023-03-16T20:34:29.692Z,3.10
2023-03-16T20:36:57.905Z,3.10
2023-03-16T20:39:25.480Z,3.10
2023-03-16T20:41:52.804Z,3.10
2023-03-16T20:44:23.613Z,3.00
2023-03-16T20:46:51.176Z,3.10
2023-03-16T20:49:30.217Z,3.00
2023-03-16T20:51:57.741Z,3.00
2023-03-16T20:54:25.152Z,2.90
2023-03-16T20:56:52.295Z,2.90
2023-03-16T20:59:23.965Z,2.80
2023-03-16T21:01:54.670Z,2.80
2023-03-16T21:04:28.867Z,2.80
2023-03-16T21:06:56.906Z,2.80
2023-03-16T21:09:24.101Z,2.70
2023-03-16T21:11:51.356Z,2.70
2023-03-16T21:14:22.064Z,2.60
2023-03-16T21:16:49.547Z,2.70
2023-03-16T21:19:19.482Z,2.60
2023-03-16T21:21:46.719Z,2.60
2023-03-16T21:24:13.911Z,2.60
2023-03-16T21:26:42.865Z,2.60
2023-03-16T21:29:23.977Z,2.60
2023-03-16T21:31:51.876Z,2.50
2023-03-16T21:34:27.914Z,2.50
2023-03-16T21:36:55.208Z,2.50
2023-03-16T21:39:25.255Z,2.50
2023-03-16T21:41:53.795Z,2.40
2023-03-16T21:44:21.255Z,2.40
2023-03-16T21:46:48.373Z,2.30
2023-03-16T21:49:15.993Z,2.30
2023-03-16T21:51:43.436Z,2.30
2023-03-16T21:54:18.121Z,2.30
2023-03-16T21:56:45.382Z,2.30
2023-03-16T21:59:13.191Z,2.20
2023-03-16T22:01:58.317Z,2.20
2023-03-16T22:04:28.517Z,2.20
2023-03-16T22:06:55.573Z,2.20
2023-03-16T22:09:22.770Z,2.20
2023-03-16T22:11:49.926Z,2.10
2023-03-16T22:14:16.913Z,2.10
2023-03-16T22:16:44.101Z,2.10
2023-03-16T22:19:15.970Z,2.10
2023-03-16T22:21:44.656Z,2.10
2023-03-16T22:24:23.739Z,2.10
2023-03-16T22:26:51.652Z,2.10
2023-03-16T22:29:28.425Z,2.00
2023-03-16T22:32:04.341Z,2.00
2023-03-16T22:34:40.390Z,2.00
2023-03-16T22:37:10.322Z,2.00
2023-03-16T22:39:39.978Z,2.00
2023-03-16T22:42:24.010Z,2.00
2023-03-16T22:44:50.996Z,1.90
2023-03-16T22:47:37.094Z,1.90
2023-03-16T22:50:04.252Z,1.80
2023-03-16T22:52:35.981Z,1.70
2023-03-16T22:55:04.677Z,1.70
2023-03-16T22:57:32.533Z,1.70
2023-03-16T23:00:01.260Z,1.70
2023-03-16T23:02:29.074Z,1.70
2023-03-16T23:04:56.246Z,1.70
2023-03-16T23:07:23.471Z,1.60
2023-03-16T23:09:50.566Z,1.50
2023-03-16T23:12:21.727Z,1.50
2023-03-16T23:14:48.820Z,1.40
2023-03-16T23:17:22.345Z,1.40
2023-03-16T23:19:49.412Z,1.40
2023-03-16T23:22:16.433Z,1.40
2023-03-16T23:24:43.757Z,1.40
2023-03-16T23:27:19.541Z,1.30
2023-03-16T23:29:46.822Z,1.30
2023-03-16T23:32:17.194Z,1.30
2023-03-16T23:34:44.627Z,1.40
2023-03-16T23:37:12.088Z,1.40
2023-03-16T23:39:39.970Z,1.40
2023-03-16T23:42:07.597Z,1.40
2023-03-16T23:44:34.821Z,1.40
2023-03-16T23:47:02.406Z,1.50
2023-03-16T23:49:32.959Z,1.50
2023-03-16T23:52:01.784Z,1.50
2023-03-16T23:54:31.688Z,1.50
2023-03-16T23:56:59.035Z,1.50
2023-03-16T23:59:27.493Z,1.50
